createdAt,value
2023-09-12T00:00:07.817Z,27.92
2023-09-12T00:02:34.733Z,27.80
2023-09-12T00:05:01.407Z,27.75
2023-09-12T00:07:28.080Z,27.89
2023-09-12T00:09:54.733Z,27.92
2023-09-12T00:12:25.026Z,27.85
2023-09-12T00:14:51.539Z,27.82
2023-09-12T00:17:18.271Z,27.81
2023-09-12T00:19:44.952Z,27.78
2023-09-12T00:22:11.691Z,27.66
2023-09-12T00:24:39.337Z,27.50
2023-09-12T00:27:07.008Z,27.57
2023-09-12T00:29:33.788Z,27.65
2023-09-12T00:32:00.469Z,27.63
2023-09-12T00:34:27.155Z,27.74
2023-09-12T00:36:53.890Z,27.81
2023-09-12T00:39:20.647Z,27.58
2023-09-12T00:41:47.221Z,27.44
2023-09-12T00:44:13.849Z,27.43
2023-09-12T00:46:41.479Z,27.46
2023-09-12T00:49:09.076Z,27.50
2023-09-12T00:51:36.603Z,27.21
2023-09-12T00:54:03.530Z,26.93
2023-09-12T00:56:30.218Z,26.81
2023-09-12T00:58:57.333Z,26.82
2023-09-12T01:04:06.494Z,26.81
2023-09-12T01:06:35.303Z,26.87
2023-09-12T01:09:02.192Z,27.04
2023-09-12T01:11:29.583Z,27.15
2023-09-12T01:13:56.171Z,27.09
2023-09-12T01:16:22.800Z,26.91
2023-09-12T01:18:50.058Z,26.74
2023-09-12T01:21:45.395Z,26.71
2023-09-12T01:24:20.714Z,26.80
2023-09-12T01:26:52.936Z,26.89
2023-09-12T01:29:22.317Z,26.90
2023-09-12T01:31:51.977Z,26.83
2023-09-12T01:34:20.190Z,26.75
2023-09-12T01:36:46.913Z,26.68
2023-09-12T01:39:13.552Z,26.74
2023-09-12T01:41:43.491Z,26.63
2023-09-12T01:44:11.527Z,26.38
2023-09-12T01:46:38.981Z,26.42
2023-09-12T01:49:07.100Z,26.30
2023-09-12T01:51:34.737Z,26.54
2023-09-12T01:54:02.012Z,26.46
2023-09-12T01:56:29.324Z,26.35
2023-09-12T01:58:55.928Z,26.38
2023-09-12T02:01:22.509Z,26.28
2023-09-12T02:03:49.135Z,26.18
2023-09-12T02:06:15.967Z,26.21
2023-09-12T02:08:42.917Z,26.10
2023-09-12T02:11:09.609Z,26.19
2023-09-12T02:13:36.206Z,26.28
2023-09-12T02:16:04.647Z,26.39
2023-09-12T02:18:31.826Z,26.34
2023-09-12T02:21:01.227Z,26.04
2023-09-12T02:23:27.864Z,25.94
2023-09-12T02:25:54.494Z,25.88
2023-09-12T02:28:21.105Z,25.88
2023-09-12T02:30:47.730Z,25.97
2023-09-12T02:33:14.351Z,26.11
2023-09-12T02:35:41.058Z,25.97
2023-09-12T02:38:08.387Z,25.78
2023-09-12T02:40:34.915Z,25.79
2023-09-12T02:43:01.662Z,25.61
2023-09-12T02:45:28.343Z,25.63
2023-09-12T02:47:54.979Z,25.64
2023-09-12T02:50:21.710Z,25.69
2023-09-12T02:52:48.385Z,25.73
2023-09-12T02:55:15.055Z,25.81
2023-09-12T02:57:41.808Z,25.67
2023-09-12T03:00:10.262Z,25.49
2023-09-12T03:02:37.050Z,25.02
2023-09-12T03:05:04.014Z,24.81
2023-09-12T03:07:31.485Z,24.97
2023-09-12T03:09:58.096Z,24.95
2023-09-12T03:12:24.707Z,25.03
2023-09-12T03:14:51.264Z,25.08
2023-09-12T03:17:17.887Z,25.33
2023-09-12T03:19:44.650Z,25.37
2023-09-12T03:22:11.272Z,25.30
2023-09-12T03:24:37.893Z,25.30
2023-09-12T03:27:04.889Z,25.30
2023-09-12T03:29:32.504Z,25.07
2023-09-12T03:31:59.104Z,25.00
2023-09-12T03:34:25.973Z,24.78
2023-09-12T03:36:52.549Z,24.61
2023-09-12T03:39:19.123Z,24.53
2023-09-12T03:41:45.706Z,24.69
2023-09-12T03:44:12.306Z,24.68
2023-09-12T03:46:39.026Z,24.63
2023-09-12T03:49:05.716Z,24.81
2023-09-12T03:51:32.628Z,24.83
2023-09-12T03:53:59.226Z,24.78
2023-09-12T03:56:25.933Z,24.56
2023-09-12T03:58:52.539Z,24.65
2023-09-12T04:01:19.261Z,24.76
2023-09-12T04:06:15.295Z,24.55
2023-09-12T04:08:42.286Z,24.52
2023-09-12T04:11:09.040Z,24.64
2023-09-12T04:13:35.562Z,24.67
2023-09-12T04:16:02.353Z,24.60
2023-09-12T04:18:29.299Z,24.48
2023-09-12T04:20:59.103Z,24.54
2023-09-12T04:23:26.592Z,24.54
2023-09-12T04:25:53.147Z,24.59
2023-09-12T04:28:19.805Z,24.51
2023-09-12T04:30:47.455Z,24.25
2023-09-12T04:33:14.272Z,24.35
2023-09-12T04:35:40.907Z,24.42
2023-09-12T04:38:07.598Z,24.35
2023-09-12T04:40:34.193Z,24.53
2023-09-12T04:43:00.829Z,24.46
2023-09-12T04:45:27.436Z,24.52
2023-09-12T04:47:54.060Z,24.49
2023-09-12T04:50:20.619Z,24.74
2023-09-12T04:52:47.263Z,24.88
2023-09-12T04:55:13.829Z,24.65
2023-09-12T04:57:42.319Z,24.56
2023-09-12T05:00:12.130Z,24.49
2023-09-12T05:02:39.019Z,24.16
2023-09-12T05:05:06.146Z,24.29
2023-09-12T05:07:34.922Z,24.22
2023-09-12T05:10:01.658Z,24.19
2023-09-12T05:12:28.243Z,24.30
2023-09-12T05:14:54.838Z,24.40
2023-09-12T05:17:21.374Z,24.51
2023-09-12T05:19:47.916Z,24.54
2023-09-12T05:22:14.531Z,24.66
2023-09-12T05:24:41.113Z,24.69
2023-09-12T05:27:07.898Z,24.80
2023-09-12T05:29:34.536Z,24.78
2023-09-12T05:32:01.275Z,24.82
2023-09-12T05:34:27.849Z,24.80
2023-09-12T05:36:54.392Z,24.80
2023-09-12T05:39:21.174Z,25.08
2023-09-12T05:41:47.798Z,24.96
2023-09-12T05:44:18.821Z,24.93
2023-09-12T05:46:49.368Z,25.02
2023-09-12T05:49:16.203Z,25.10
2023-09-12T05:51:43.760Z,25.02
2023-09-12T05:54:11.390Z,24.89
2023-09-12T05:56:38.032Z,24.65
2023-09-12T05:59:04.586Z,24.19
2023-09-12T06:01:31.166Z,24.03
2023-09-12T06:03:58.170Z,24.15
2023-09-12T06:06:25.033Z,24.23
2023-09-12T06:08:51.626Z,24.19
2023-09-12T06:11:18.302Z,24.20
2023-09-12T06:13:44.863Z,24.17
2023-09-12T06:16:11.427Z,24.15
2023-09-12T06:18:38.097Z,24.02
2023-09-12T06:21:05.761Z,23.81
2023-09-12T06:23:32.623Z,23.71
2023-09-12T06:25:59.832Z,23.87
2023-09-12T06:28:31.710Z,23.89
2023-09-12T06:30:59.839Z,23.92
2023-09-12T06:33:27.665Z,23.96
2023-09-12T06:35:54.404Z,24.19
2023-09-12T06:38:22.819Z,24.32
2023-09-12T06:40:49.635Z,24.55
2023-09-12T06:43:16.295Z,24.50
2023-09-12T06:45:42.859Z,24.66
2023-09-12T06:48:09.648Z,24.72
2023-09-12T06:50:38.696Z,24.81
2023-09-12T06:53:08.262Z,24.98
2023-09-12T06:55:35.319Z,24.95
2023-09-12T06:58:02.142Z,25.05
2023-09-12T07:00:28.798Z,25.39
2023-09-12T07:02:55.706Z,25.42
2023-09-12T07:05:22.473Z,25.57
2023-09-12T07:07:49.348Z,25.49
2023-09-12T07:10:23.462Z,25.66
2023-09-12T07:12:51.934Z,25.68
2023-09-12T07:15:18.782Z,25.59
2023-09-12T07:17:45.458Z,25.65
2023-09-12T07:20:12.881Z,25.70
2023-09-12T07:22:41.219Z,25.75
2023-09-12T07:25:08.418Z,25.83
2023-09-12T07:27:34.983Z,25.77
2023-09-12T07:30:01.607Z,25.74
2023-09-12T07:32:28.832Z,25.74
2023-09-12T07:34:55.622Z,25.97
2023-09-12T07:37:22.221Z,26.07
2023-09-12T07:39:48.813Z,26.34
2023-09-12T07:42:15.414Z,26.47
2023-09-12T07:44:42.082Z,26.36
2023-09-12T07:47:08.897Z,26.37
2023-09-12T07:49:35.424Z,26.54
2023-09-12T07:52:02.112Z,26.61
2023-09-12T07:54:29.285Z,26.53
2023-09-12T07:56:55.855Z,26.73
2023-09-12T07:59:23.298Z,26.83
2023-09-12T08:01:50.034Z,26.85
2023-09-12T08:04:16.651Z,26.70
2023-09-12T08:06:57.022Z,26.72
2023-09-12T08:09:24.797Z,26.89
2023-09-12T08:11:51.475Z,26.99
2023-09-12T08:14:18.224Z,27.03
2023-09-12T08:16:46.926Z,27.04
2023-09-12T08:19:15.357Z,26.97
2023-09-12T08:21:43.851Z,27.06
2023-09-12T08:24:10.402Z,27.11
2023-09-12T08:26:37.430Z,26.94
2023-09-12T08:29:03.991Z,26.89
2023-09-12T08:31:30.602Z,26.85
2023-09-12T08:33:57.414Z,26.79
2023-09-12T08:36:24.011Z,26.80
2023-09-12T08:38:50.555Z,26.92
2023-09-12T08:41:17.208Z,27.17
2023-09-12T08:43:44.711Z,27.25
2023-09-12T08:46:12.477Z,27.37
2023-09-12T08:48:39.821Z,27.52
2023-09-12T08:51:08.598Z,27.76
2023-09-12T08:53:37.233Z,27.80
2023-09-12T08:56:05.075Z,27.85
2023-09-12T08:58:36.463Z,27.94
2023-09-12T09:01:04.491Z,28.07
2023-09-12T09:03:31.848Z,28.10
2023-09-12T09:05:59.613Z,28.16
2023-09-12T09:08:27.577Z,28.11
2023-09-12T09:11:03.723Z,27.89
2023-09-12T09:13:31.002Z,28.05
2023-09-12T09:16:14.051Z,28.17
2023-09-12T09:18:57.251Z,28.32
2023-09-12T09:21:26.396Z,28.39
2023-09-12T09:23:56.511Z,28.37
2023-09-12T09:26:23.312Z,28.44
2023-09-12T09:29:08.008Z,28.51
2023-09-12T09:31:35.364Z,28.60
2023-09-12T09:34:05.271Z,28.67
2023-09-12T09:36:33.000Z,28.72
2023-09-12T09:39:04.681Z,28.77
2023-09-12T09:41:32.020Z,28.79
2023-09-12T09:43:59.180Z,28.85
2023-09-12T09:46:25.897Z,28.94
2023-09-12T09:48:53.107Z,29.17
2023-09-12T09:51:20.135Z,29.11
2023-09-12T09:53:46.724Z,29.17
2023-09-12T09:56:15.188Z,29.11
2023-09-12T09:58:57.854Z,29.21
2023-09-12T10:01:29.137Z,29.23
2023-09-12T10:04:00.118Z,29.36
2023-09-12T10:06:28.245Z,29.42
2023-09-12T10:08:55.871Z,29.57
2023-09-12T10:11:25.351Z,29.58
2023-09-12T10:13:56.614Z,29.56
2023-09-12T10:16:47.301Z,29.67
2023-09-12T10:19:16.690Z,29.69
2023-09-12T10:22:10.457Z,29.79
2023-09-12T10:24:38.196Z,29.89
2023-09-12T10:27:06.498Z,29.96
2023-09-12T10:29:33.535Z,29.91
2023-09-12T10:32:01.162Z,29.95
2023-09-12T10:34:29.679Z,30.01
2023-09-12T10:36:59.008Z,30.10
2023-09-12T10:39:28.411Z,30.22
2023-09-12T10:41:55.694Z,30.31
2023-09-12T10:44:22.879Z,30.24
2023-09-12T10:46:50.435Z,30.14
2023-09-12T10:49:18.130Z,30.28
2023-09-12T10:51:46.603Z,30.51
2023-09-12T10:54:24.031Z,30.37
2023-09-12T10:57:04.367Z,30.32
2023-09-12T10:59:32.815Z,30.63
2023-09-12T11:02:30.639Z,30.71
2023-09-12T11:04:58.053Z,30.82
2023-09-12T11:07:44.790Z,30.86
2023-09-12T11:10:16.038Z,30.98
2023-09-12T11:12:44.152Z,30.96
2023-09-12T11:15:11.729Z,30.87
2023-09-12T11:17:45.123Z,31.15
2023-09-12T11:20:12.780Z,31.33
2023-09-12T11:22:41.186Z,31.31
2023-09-12T11:25:27.658Z,31.20
2023-09-12T11:27:57.217Z,31.17
2023-09-12T11:30:36.044Z,31.16
2023-09-12T11:33:07.046Z,31.21
2023-09-12T11:35:38.169Z,31.32
2023-09-12T11:38:04.925Z,31.30
2023-09-12T11:40:34.411Z,31.29
2023-09-12T11:43:05.682Z,31.42
2023-09-12T11:45:33.806Z,31.50
2023-09-12T11:48:00.501Z,31.55
2023-09-12T11:50:34.502Z,31.63
2023-09-12T11:53:01.016Z,31.66
2023-09-12T11:55:27.561Z,31.69
2023-09-12T11:57:54.964Z,31.26
2023-09-12T12:00:21.743Z,31.57
2023-09-12T12:02:48.444Z,31.85
2023-09-12T12:05:15.306Z,32.00
2023-09-12T12:07:43.849Z,32.06
2023-09-12T12:10:11.121Z,32.20
2023-09-12T12:12:37.770Z,32.08
2023-09-12T12:15:04.703Z,32.27
2023-09-12T12:17:31.278Z,32.32
2023-09-12T12:19:58.323Z,32.38
2023-09-12T12:22:24.920Z,32.46
2023-09-12T12:24:52.824Z,32.52
2023-09-12T12:27:19.598Z,32.52
2023-09-12T12:29:46.824Z,32.55
2023-09-12T12:32:16.978Z,32.60
2023-09-12T12:35:34.683Z,32.64
2023-09-12T12:37:35.952Z,32.66
2023-09-12T12:40:04.925Z,32.80
2023-09-12T12:42:48.642Z,32.75
2023-09-12T12:45:22.276Z,32.63
2023-09-12T12:47:56.794Z,32.74
2023-09-12T12:50:23.466Z,32.77
2023-09-12T12:52:50.266Z,32.64
2023-09-12T12:55:18.200Z,32.59
2023-09-12T12:57:45.452Z,32.63
2023-09-12T13:00:14.795Z,32.80
2023-09-12T13:02:43.004Z,32.88
2023-09-12T13:05:25.394Z,33.18
2023-09-12T13:07:52.405Z,33.35
2023-09-12T13:10:20.074Z,33.42
2023-09-12T13:12:47.483Z,33.41
2023-09-12T13:15:15.106Z,33.41
2023-09-12T13:17:42.637Z,33.22
2023-09-12T13:20:10.415Z,33.14
2023-09-12T13:22:37.494Z,33.09
2023-09-12T13:25:04.337Z,33.32
2023-09-12T13:27:31.043Z,33.28
2023-09-12T13:30:00.262Z,33.46
2023-09-12T13:32:27.283Z,33.50
2023-09-12T13:34:54.287Z,33.46
2023-09-12T13:37:22.344Z,33.39
2023-09-12T13:39:50.695Z,33.54
2023-09-12T13:42:22.038Z,33.52
2023-09-12T13:44:49.636Z,33.53
2023-09-12T13:47:23.455Z,33.55
2023-09-12T13:49:54.535Z,33.55
2023-09-12T13:52:22.323Z,33.57
2023-09-12T13:54:49.350Z,33.57
2023-09-12T13:57:17.657Z,33.41
2023-09-12T13:59:46.176Z,33.45
2023-09-12T14:02:13.810Z,33.35
2023-09-12T14:04:42.026Z,33.47
2023-09-12T14:07:09.597Z,33.67
2023-09-12T14:09:36.807Z,33.79
2023-09-12T14:12:05.629Z,33.75
2023-09-12T14:14:33.936Z,33.80
2023-09-12T14:17:00.717Z,33.83
2023-09-12T14:19:30.327Z,33.77
2023-09-12T14:21:57.491Z,33.75
2023-09-12T14:24:25.808Z,33.64
2023-09-12T14:26:53.169Z,33.83
2023-09-12T14:29:20.826Z,33.79
2023-09-12T14:31:56.664Z,33.87
2023-09-12T14:34:23.391Z,33.89
2023-09-12T14:36:50.160Z,33.91
2023-09-12T14:39:16.770Z,33.89
2023-09-12T14:41:45.142Z,33.80
2023-09-12T14:44:11.668Z,33.76
2023-09-12T14:46:38.273Z,33.62
2023-09-12T14:49:05.144Z,33.51
2023-09-12T14:51:34.508Z,33.22
2023-09-12T14:54:02.918Z,33.30
2023-09-12T14:56:29.883Z,33.37
2023-09-12T14:58:56.780Z,33.27
2023-09-12T15:01:25.017Z,33.17
2023-09-12T15:03:52.872Z,33.04
2023-09-12T15:06:22.262Z,32.99
2023-09-12T15:08:49.944Z,33.01
2023-09-12T15:11:16.587Z,32.90
2023-09-12T15:13:43.255Z,32.78
2023-09-12T15:16:10.181Z,32.59
2023-09-12T15:18:39.198Z,32.41
2023-09-12T15:21:06.180Z,32.20
2023-09-12T15:23:33.354Z,32.12
2023-09-12T15:26:00.016Z,32.04
2023-09-12T15:28:26.679Z,32.01
2023-09-12T15:30:53.394Z,32.06
2023-09-12T15:33:21.232Z,31.92
2023-09-12T15:35:47.850Z,31.84
2023-09-12T15:38:14.384Z,31.71
2023-09-12T15:40:41.362Z,31.47
2023-09-12T15:43:19.350Z,31.45
2023-09-12T15:45:52.358Z,31.45
2023-09-12T15:48:19.517Z,31.24
2023-09-12T15:50:46.400Z,31.20
2023-09-12T15:53:13.040Z,31.13
2023-09-12T15:55:39.657Z,31.13
2023-09-12T15:58:06.319Z,31.13
2023-09-12T16:00:33.372Z,31.13
2023-09-12T16:03:00.346Z,31.14
2023-09-12T16:05:26.964Z,31.02
2023-09-12T16:07:53.573Z,30.90
2023-09-12T16:10:20.703Z,30.87
2023-09-12T16:12:47.635Z,30.86
2023-09-12T16:15:15.869Z,30.79
2023-09-12T16:17:44.509Z,30.81
2023-09-12T16:20:14.571Z,30.72
2023-09-12T16:22:41.876Z,30.53
2023-09-12T16:25:10.304Z,30.54
2023-09-12T16:27:37.246Z,30.56
2023-09-12T16:30:08.959Z,30.36
2023-09-12T16:32:38.460Z,29.93
2023-09-12T16:35:05.840Z,29.84
2023-09-12T16:37:33.674Z,29.43
2023-09-12T16:40:02.039Z,28.56
2023-09-12T16:42:31.697Z,27.78
2023-09-12T16:45:00.921Z,27.53
2023-09-12T16:47:28.756Z,27.64
2023-09-12T16:49:57.353Z,27.96
2023-09-12T16:52:24.033Z,28.18
2023-09-12T16:54:50.834Z,28.14
2023-09-12T16:57:17.503Z,28.14
2023-09-12T16:59:45.715Z,27.96
2023-09-12T17:02:13.478Z,28.05
2023-09-12T17:04:45.047Z,28.10
2023-09-12T17:07:13.048Z,28.13
2023-09-12T17:09:40.333Z,27.85
2023-09-12T17:12:08.171Z,27.70
2023-09-12T17:14:34.943Z,27.63
2023-09-12T17:17:02.335Z,27.82
2023-09-12T17:19:29.452Z,27.98
2023-09-12T17:21:56.063Z,27.78
2023-09-12T17:24:22.740Z,27.20
2023-09-12T17:26:49.497Z,27.35
2023-09-12T17:29:16.155Z,26.73
2023-09-12T17:31:42.980Z,26.57
2023-09-12T17:34:09.745Z,26.45
2023-09-12T17:36:36.482Z,26.71
2023-09-12T17:39:03.570Z,26.98
2023-09-12T17:41:30.181Z,26.98
2023-09-12T17:43:58.109Z,27.03
2023-09-12T17:46:25.201Z,27.18
2023-09-12T17:48:51.932Z,27.32
2023-09-12T17:51:18.557Z,27.18
2023-09-12T17:53:45.578Z,26.87
2023-09-12T17:56:12.395Z,26.58
2023-09-12T17:58:39.268Z,26.66
2023-09-12T18:01:06.161Z,26.45
2023-09-12T18:03:33.128Z,26.85
2023-09-12T18:06:00.363Z,26.95
2023-09-12T18:08:27.259Z,27.15
2023-09-12T18:10:54.126Z,26.90
2023-09-12T18:13:20.771Z,26.64
2023-09-12T18:15:47.655Z,26.83
2023-09-12T18:18:14.400Z,26.91
2023-09-12T18:20:41.683Z,27.06
2023-09-12T18:23:08.302Z,27.15
2023-09-12T18:25:34.871Z,27.17
2023-09-12T18:28:01.509Z,27.46
2023-09-12T18:30:28.343Z,27.41
2023-09-12T18:32:57.883Z,26.89
2023-09-12T18:35:26.131Z,26.43
2023-09-12T18:37:53.992Z,26.22
2023-09-12T18:40:21.328Z,25.73
2023-09-12T18:42:48.294Z,25.50
2023-09-12T18:45:15.351Z,25.81
2023-09-12T18:47:42.072Z,26.18
2023-09-12T18:50:09.225Z,26.47
2023-09-12T18:52:51.790Z,26.32
2023-09-12T18:55:20.871Z,25.48
2023-09-12T18:57:47.548Z,25.37
2023-09-12T19:00:17.397Z,25.41
2023-09-12T19:02:44.413Z,25.38
2023-09-12T19:05:11.414Z,25.37
2023-09-12T19:07:38.276Z,25.57
2023-09-12T19:10:05.261Z,25.71
2023-09-12T19:12:31.944Z,25.44
2023-09-12T19:14:59.216Z,25.34
2023-09-12T19:17:25.825Z,25.48
2023-09-12T19:19:52.389Z,25.50
2023-09-12T19:22:19.054Z,25.24
2023-09-12T19:24:45.675Z,25.27
2023-09-12T19:27:12.264Z,25.21
2023-09-12T19:29:50.303Z,25.41
2023-09-12T19:32:16.946Z,25.55
2023-09-12T19:34:44.679Z,25.68
2023-09-12T19:37:12.749Z,25.90
2023-09-12T19:39:39.387Z,26.12
2023-09-12T19:42:06.888Z,26.00
2023-09-12T19:44:33.891Z,26.14
2023-09-12T19:47:00.661Z,26.33
2023-09-12T19:49:29.283Z,26.37
2023-09-12T19:51:58.419Z,26.37
2023-09-12T19:54:25.077Z,26.28
2023-09-12T19:56:51.617Z,25.50
2023-09-12T19:59:18.264Z,25.12
2023-09-12T20:01:44.850Z,24.79
2023-09-12T20:04:11.513Z,24.69
2023-09-12T20:06:38.380Z,24.71
2023-09-12T20:09:07.392Z,24.42
2023-09-12T20:11:34.107Z,24.65
2023-09-12T20:14:00.936Z,24.90
2023-09-12T20:16:27.610Z,24.63
2023-09-12T20:18:54.316Z,24.58
2023-09-12T20:21:21.062Z,24.68
2023-09-12T20:23:48.239Z,24.81
2023-09-12T20:26:14.839Z,24.91
2023-09-12T20:28:41.651Z,25.07
2023-09-12T20:31:08.464Z,25.16
2023-09-12T20:33:35.270Z,25.45
2023-09-12T20:36:02.146Z,25.56
2023-09-12T20:38:28.769Z,25.56
2023-09-12T20:40:55.322Z,25.51
2023-09-12T20:43:21.908Z,25.56
2023-09-12T20:45:53.537Z,25.66
2023-09-12T20:48:20.830Z,25.37
2023-09-12T20:50:47.417Z,24.91
2023-09-12T20:53:17.989Z,24.62
2023-09-12T20:55:45.132Z,24.65
2023-09-12T20:58:13.285Z,24.86
2023-09-12T21:00:40.956Z,24.87
2023-09-12T21:03:07.821Z,25.06
2023-09-12T21:05:34.466Z,25.28
2023-09-12T21:08:02.044Z,25.35
2023-09-12T21:10:28.669Z,25.44
2023-09-12T21:12:55.407Z,25.24
2023-09-12T21:15:24.337Z,25.00
2023-09-12T21:17:51.179Z,24.97
2023-09-12T21:20:17.884Z,25.06
2023-09-12T21:22:44.647Z,25.10
2023-09-12T21:25:11.219Z,25.19
2023-09-12T21:27:38.160Z,25.36
2023-09-12T21:30:08.383Z,25.46
2023-09-12T21:32:35.157Z,25.34
2023-09-12T21:35:16.602Z,25.04
2023-09-12T21:37:46.838Z,24.87
2023-09-12T21:40:15.872Z,24.72
2023-09-12T21:42:43.534Z,24.72
2023-09-12T21:45:13.746Z,24.88
2023-09-12T21:47:41.056Z,25.04
2023-09-12T21:50:08.147Z,25.09
2023-09-12T21:52:35.272Z,25.13
2023-09-12T21:55:02.437Z,25.18
2023-09-12T21:57:29.115Z,25.19
2023-09-12T21:59:56.811Z,25.33
2023-09-12T22:02:23.664Z,25.40
2023-09-12T22:04:50.305Z,25.02
2023-09-12T22:07:16.963Z,24.80
2023-09-12T22:09:43.787Z,24.65
2023-09-12T22:12:10.436Z,24.44
2023-09-12T22:14:37.029Z,24.25
2023-09-12T22:17:04.166Z,24.39
2023-09-12T22:19:31.990Z,24.51
2023-09-12T22:21:59.737Z,24.58
2023-09-12T22:24:26.346Z,24.74
2023-09-12T22:26:52.889Z,24.55
2023-09-12T22:29:21.508Z,24.67
2023-09-12T22:31:48.351Z,24.74
2023-09-12T22:34:15.165Z,24.78
2023-09-12T22:36:41.712Z,24.87
2023-09-12T22:39:08.544Z,24.98
2023-09-12T22:41:35.126Z,24.97
2023-09-12T22:44:02.895Z,25.16
2023-09-12T22:46:29.583Z,25.06
2023-09-12T22:48:56.493Z,25.10
2023-09-12T22:51:23.103Z,24.95
2023-09-12T22:53:49.740Z,24.94
2023-09-12T22:56:16.308Z,25.11
2023-09-12T22:58:42.834Z,25.03
2023-09-12T23:01:10.338Z,24.70
2023-09-12T23:03:37.098Z,24.56
2023-09-12T23:06:03.945Z,24.63
2023-09-12T23:08:30.648Z,24.69
2023-09-12T23:10:57.190Z,24.73
2023-09-12T23:13:23.769Z,24.89
2023-09-12T23:15:50.441Z,24.55
2023-09-12T23:18:17.345Z,24.33
2023-09-12T23:20:46.273Z,24.09
2023-09-12T23:23:12.899Z,23.90
2023-09-12T23:25:39.778Z,23.70
2023-09-12T23:28:07.855Z,23.71
2023-09-12T23:30:34.649Z,23.84
2023-09-12T23:33:01.463Z,24.04
2023-09-12T23:35:28.472Z,24.20
2023-09-12T23:37:55.089Z,24.26
2023-09-12T23:40:22.360Z,24.31
2023-09-12T23:42:49.078Z,24.43
2023-09-12T23:45:15.871Z,24.48
2023-09-12T23:47:42.586Z,24.50
2023-09-12T23:50:09.800Z,24.58
2023-09-12T23:52:36.442Z,24.62
2023-09-12T23:55:03.189Z,24.70
2023-09-12T23:57:29.742Z,24.73
2023-09-12T23:59:56.559Z,24.77
